createdAt,value
2018-06-02T00:00:26.588Z,93.70
2018-06-02T00:01:31.841Z,93.80
2018-06-02T00:02:35.951Z,93.80
2018-06-02T00:03:40.027Z,94.10
2018-06-02T00:04:44.922Z,94.00
2018-06-02T00:05:49.011Z,94.00
2018-06-02T00:06:53.123Z,94.20
2018-06-02T00:07:57.275Z,94.10
2018-06-02T00:09:01.941Z,94.00
2018-06-02T00:10:06.010Z,93.40
2018-06-02T00:11:10.160Z,93.40
2018-06-02T00:12:14.263Z,93.60
2018-06-02T00:13:18.384Z,93.70
2018-06-02T00:14:22.460Z,93.70
2018-06-02T00:15:26.543Z,93.40
2018-06-02T00:16:30.626Z,93.60
2018-06-02T00:17:34.687Z,94.00
2018-06-02T00:18:39.540Z,93.90
2018-06-02T00:19:43.580Z,93.90
2018-06-02T00:20:48.211Z,93.70
2018-06-02T00:21:52.599Z,93.50
2018-06-02T00:22:56.962Z,93.10
2018-06-02T00:24:01.296Z,93.30
2018-06-02T00:25:05.611Z,93.50
2018-06-02T00:26:10.211Z,93.60
2018-06-02T00:27:14.559Z,93.70
2018-06-02T00:28:18.920Z,93.40
2018-06-02T00:29:23.225Z,93.50
2018-06-02T00:30:28.298Z,93.20
2018-06-02T00:31:32.676Z,93.50
2018-06-02T00:32:36.851Z,93.40
2018-06-02T00:33:40.915Z,93.50
2018-06-02T00:34:45.006Z,93.20
2018-06-02T00:35:49.095Z,93.30
2018-06-02T00:36:53.177Z,93.30
2018-06-02T00:37:57.296Z,93.30
2018-06-02T00:39:01.694Z,93.20
2018-06-02T00:40:05.842Z,93.20
2018-06-02T00:41:09.915Z,93.20
2018-06-02T00:42:14.198Z,93.00
2018-06-02T00:43:18.290Z,93.60
2018-06-02T00:44:22.655Z,93.40
2018-06-02T00:45:26.719Z,92.80
2018-06-02T00:46:30.850Z,93.20
2018-06-02T00:47:35.721Z,93.10
2018-06-02T00:48:40.014Z,93.10
2018-06-02T00:49:44.863Z,93.00
2018-06-02T00:50:49.264Z,93.00
2018-06-02T00:51:53.831Z,93.10
2018-06-02T00:52:58.230Z,93.50
2018-06-02T00:54:02.565Z,93.60
2018-06-02T00:55:08.891Z,93.60
2018-06-02T00:56:13.174Z,93.30
2018-06-02T00:57:17.806Z,93.50
2018-06-02T00:58:22.107Z,93.50
2018-06-02T00:59:26.435Z,93.70
2018-06-02T01:00:30.763Z,93.40
2018-06-02T01:01:35.889Z,93.20
2018-06-02T01:02:41.048Z,93.10
2018-06-02T01:03:45.635Z,93.10
2018-06-02T01:04:50.713Z,93.20
2018-06-02T01:05:55.037Z,93.30
2018-06-02T01:06:59.447Z,93.40
2018-06-02T01:08:04.092Z,93.40
2018-06-02T01:09:09.011Z,94.00
2018-06-02T01:10:14.379Z,93.70
2018-06-02T01:11:18.723Z,93.70
2018-06-02T01:12:23.123Z,93.60
2018-06-02T01:13:27.536Z,93.60
2018-06-02T01:14:31.863Z,93.40
2018-06-02T01:15:36.226Z,93.50
2018-06-02T01:16:40.828Z,93.60
2018-06-02T01:17:45.145Z,93.70
2018-06-02T01:18:49.536Z,93.50
2018-06-02T01:19:54.720Z,93.60
2018-06-02T01:20:59.032Z,93.60
2018-06-02T01:22:03.347Z,94.00
2018-06-02T01:23:08.048Z,93.70
2018-06-02T01:24:12.610Z,93.50
2018-06-02T01:25:16.895Z,93.60
2018-06-02T01:26:21.956Z,93.60
2018-06-02T01:27:26.271Z,93.60
2018-06-02T01:28:30.963Z,93.60
2018-06-02T01:29:35.301Z,93.30
2018-06-02T01:30:39.421Z,93.30
2018-06-02T01:31:43.522Z,93.10
2018-06-02T01:32:47.622Z,93.20
2018-06-02T01:33:51.708Z,93.10
2018-06-02T01:34:55.818Z,93.20
2018-06-02T01:35:59.943Z,93.30
2018-06-02T01:37:04.028Z,93.60
2018-06-02T01:38:08.156Z,93.30
2018-06-02T01:39:12.270Z,93.50
2018-06-02T01:40:17.249Z,92.90
2018-06-02T01:41:21.352Z,92.80
2018-06-02T01:42:25.428Z,93.10
2018-06-02T01:43:29.550Z,92.80
2018-06-02T01:44:33.794Z,93.00
2018-06-02T01:45:37.939Z,93.00
2018-06-02T01:46:42.042Z,92.20
2018-06-02T01:47:46.213Z,92.30
2018-06-02T01:48:51.433Z,92.70
2018-06-02T01:49:55.587Z,92.70
2018-06-02T01:50:59.790Z,92.90
2018-06-02T01:52:04.111Z,93.00
2018-06-02T01:53:08.307Z,93.40
2018-06-02T01:54:12.718Z,92.90
2018-06-02T01:55:16.874Z,92.60
2018-06-02T01:56:20.983Z,92.60
2018-06-02T01:57:25.865Z,92.60
2018-06-02T01:58:30.027Z,92.70
2018-06-02T01:59:34.216Z,92.80
2018-06-02T02:00:39.221Z,92.40
2018-06-02T02:01:43.340Z,92.40
2018-06-02T02:02:48.203Z,93.00
2018-06-02T02:03:52.727Z,93.00
2018-06-02T02:04:57.017Z,92.80
2018-06-02T02:06:01.456Z,92.70
2018-06-02T02:07:05.891Z,92.70
2018-06-02T02:08:10.268Z,92.80
2018-06-02T02:09:14.650Z,92.60
2018-06-02T02:10:19.122Z,92.70
2018-06-02T02:11:23.542Z,92.40
2018-06-02T02:12:28.667Z,92.70
2018-06-02T02:13:33.824Z,92.70
2018-06-02T02:14:38.134Z,92.70
2018-06-02T02:15:42.504Z,92.60
2018-06-02T02:16:47.638Z,92.40
2018-06-02T02:17:52.765Z,92.80
2018-06-02T02:18:57.900Z,92.70
2018-06-02T02:20:03.029Z,92.60
2018-06-02T02:21:07.505Z,92.90
2018-06-02T02:22:11.948Z,92.60
2018-06-02T02:23:16.395Z,92.50
2018-06-02T02:24:20.922Z,92.30
2018-06-02T02:25:25.335Z,92.10
2018-06-02T02:26:29.736Z,92.20
2018-06-02T02:27:34.054Z,92.40
2018-06-02T02:28:38.449Z,92.40
2018-06-02T02:29:42.771Z,92.70
2018-06-02T02:30:47.107Z,92.50
2018-06-02T02:31:52.430Z,92.50
2018-06-02T02:33:36.517Z,92.50
2018-06-02T02:34:41.014Z,92.50
2018-06-02T02:35:45.591Z,92.50
2018-06-02T02:36:50.718Z,92.40
2018-06-02T02:37:54.821Z,92.40
2018-06-02T02:38:58.871Z,92.40
2018-06-02T02:40:03.223Z,92.50
2018-06-02T02:41:07.401Z,92.70
2018-06-02T02:42:11.651Z,92.60
2018-06-02T02:43:16.764Z,92.70
2018-06-02T02:44:20.868Z,92.70
2018-06-02T02:45:25.054Z,92.50
2018-06-02T02:46:29.110Z,92.50
2018-06-02T02:47:33.259Z,92.60
2018-06-02T02:48:37.646Z,92.40
2018-06-02T02:49:41.871Z,92.30
2018-06-02T02:50:46.215Z,92.40
2018-06-02T02:51:51.282Z,92.70
2018-06-02T02:52:55.573Z,92.40
2018-06-02T02:53:59.927Z,92.50
2018-06-02T02:55:04.223Z,92.30
2018-06-02T02:56:08.570Z,92.40
2018-06-02T02:57:13.609Z,92.00
2018-06-02T02:58:18.752Z,92.10
2018-06-02T02:59:23.079Z,92.00
2018-06-02T03:00:27.706Z,92.10
2018-06-02T03:01:32.112Z,92.40
2018-06-02T03:02:36.500Z,92.20
2018-06-02T03:03:40.948Z,92.20
2018-06-02T03:04:45.294Z,92.40
2018-06-02T03:05:49.671Z,92.50
2018-06-02T03:06:54.082Z,92.50
2018-06-02T03:07:58.388Z,92.50
2018-06-02T03:09:02.737Z,92.40
2018-06-02T03:10:07.864Z,92.90
2018-06-02T03:11:12.173Z,92.60
2018-06-02T03:12:16.463Z,92.40
2018-06-02T03:13:21.481Z,92.50
2018-06-02T03:14:26.570Z,92.60
2018-06-02T03:15:30.883Z,92.60
2018-06-02T03:16:34.938Z,92.60
2018-06-02T03:17:39.015Z,92.70
2018-06-02T03:18:43.914Z,92.20
2018-06-02T03:19:47.988Z,92.20
2018-06-02T03:20:52.072Z,92.30
2018-06-02T03:21:56.199Z,92.00
2018-06-02T03:23:00.278Z,92.40
2018-06-02T03:24:04.325Z,92.30
2018-06-02T03:25:08.397Z,92.50
2018-06-02T03:26:12.512Z,92.50
2018-06-02T03:27:16.578Z,92.40
2018-06-02T03:28:20.933Z,92.40
2018-06-02T03:29:25.247Z,92.40
2018-06-02T03:30:29.584Z,92.20
2018-06-02T03:31:34.649Z,92.20
2018-06-02T03:32:38.920Z,92.20
2018-06-02T03:33:43.282Z,92.20
2018-06-02T03:34:47.563Z,92.10
2018-06-02T03:35:51.968Z,92.10
2018-06-02T03:36:56.675Z,92.30
2018-06-02T03:38:01.199Z,92.20
2018-06-02T03:39:06.228Z,92.30
2018-06-02T03:40:10.531Z,92.30
2018-06-02T03:41:14.856Z,92.10
2018-06-02T03:42:19.150Z,92.20
2018-06-02T03:43:23.441Z,92.20
2018-06-02T03:44:27.878Z,92.20
2018-06-02T03:45:32.245Z,92.20
2018-06-02T03:46:36.567Z,92.10
2018-06-02T03:47:40.838Z,92.20
2018-06-02T03:48:45.920Z,92.20
2018-06-02T03:49:50.233Z,92.10
2018-06-02T03:50:54.556Z,92.20
2018-06-02T03:51:58.839Z,91.80
2018-06-02T03:53:03.409Z,92.10
2018-06-02T03:54:08.489Z,92.20
2018-06-02T03:55:12.773Z,92.20
2018-06-02T03:56:17.418Z,92.10
2018-06-02T03:57:21.697Z,92.10
2018-06-02T03:58:26.054Z,92.20
2018-06-02T03:59:31.052Z,92.20
2018-06-02T04:00:35.692Z,92.00
2018-06-02T04:01:40.110Z,92.10
2018-06-02T04:02:45.255Z,92.00
2018-06-02T04:03:50.299Z,92.00
2018-06-02T04:04:54.604Z,92.00
2018-06-02T04:05:58.918Z,91.50
2018-06-02T04:07:03.351Z,91.50
2018-06-02T04:08:07.643Z,91.70
2018-06-02T04:09:11.987Z,91.50
2018-06-02T04:10:16.689Z,91.40
2018-06-02T04:11:21.010Z,91.60
2018-06-02T04:12:25.335Z,91.70
2018-06-02T04:13:30.398Z,91.70
2018-06-02T04:14:34.885Z,91.70
2018-06-02T04:15:40.036Z,92.10
2018-06-02T04:16:44.477Z,92.10
2018-06-02T04:17:48.860Z,92.10
2018-06-02T04:18:53.258Z,91.90
2018-06-02T04:19:57.557Z,91.90
2018-06-02T04:21:01.839Z,92.40
2018-06-02T04:22:06.954Z,91.90
2018-06-02T04:23:11.109Z,91.90
2018-06-02T04:24:15.239Z,92.10
2018-06-02T04:25:19.352Z,92.20
2018-06-02T04:26:23.699Z,92.50
2018-06-02T04:27:28.580Z,92.00
2018-06-02T04:28:32.946Z,92.00
2018-06-02T04:29:37.135Z,92.00
2018-06-02T04:30:41.654Z,92.20
2018-06-02T04:31:46.085Z,92.20
2018-06-02T04:32:51.109Z,92.10
2018-06-02T04:33:55.394Z,92.10
2018-06-02T04:34:59.831Z,92.00
2018-06-02T04:36:03.918Z,92.80
2018-06-02T04:37:08.041Z,92.20
2018-06-02T04:38:12.211Z,92.20
2018-06-02T04:39:16.352Z,92.10
2018-06-02T04:40:20.506Z,91.90
2018-06-02T04:41:25.554Z,91.50
2018-06-02T04:42:29.998Z,91.50
2018-06-02T04:43:34.338Z,91.70
2018-06-02T04:44:39.716Z,91.80
2018-06-02T04:45:44.110Z,91.70
2018-06-02T04:46:48.393Z,91.70
2018-06-02T04:47:53.457Z,92.30
2018-06-02T04:48:57.807Z,91.90
2018-06-02T04:50:02.297Z,92.00
2018-06-02T04:51:06.859Z,92.30
2018-06-02T04:52:11.762Z,92.10
2018-06-02T04:53:15.871Z,92.10
2018-06-02T04:54:20.889Z,92.20
2018-06-02T04:55:24.924Z,92.20
2018-06-02T04:56:29.044Z,92.40
2018-06-02T04:57:33.407Z,92.40
2018-06-02T04:58:38.350Z,92.20
2018-06-02T04:59:42.794Z,92.20
2018-06-02T05:00:47.164Z,92.30
2018-06-02T05:01:51.514Z,92.50
2018-06-02T05:02:55.837Z,92.30
2018-06-02T05:04:00.439Z,92.50
2018-06-02T05:05:04.794Z,92.30
2018-06-02T05:06:09.847Z,92.50
2018-06-02T05:07:14.134Z,92.50
2018-06-02T05:08:18.445Z,92.30
2018-06-02T05:09:23.018Z,92.20
2018-06-02T05:10:27.325Z,92.40
2018-06-02T05:11:31.648Z,92.50
2018-06-02T05:12:36.716Z,93.00
2018-06-02T05:13:40.903Z,93.00
2018-06-02T05:14:44.997Z,93.10
2018-06-02T05:15:50.130Z,93.30
2018-06-02T05:16:54.950Z,93.40
2018-06-02T05:17:59.004Z,93.40
2018-06-02T05:19:03.425Z,93.50
2018-06-02T05:20:07.758Z,93.30
2018-06-02T05:21:13.137Z,93.30
2018-06-02T05:22:17.466Z,93.30
2018-06-02T05:23:21.826Z,93.40
2018-06-02T05:24:26.132Z,93.30
2018-06-02T05:25:30.515Z,93.20
2018-06-02T05:26:35.662Z,93.40
2018-06-02T05:27:40.091Z,93.40
2018-06-02T05:28:44.171Z,93.40
2018-06-02T05:29:48.270Z,93.50
2018-06-02T05:30:53.101Z,93.70
2018-06-02T05:31:57.417Z,93.70
2018-06-02T05:33:01.770Z,94.40
2018-06-02T05:34:06.527Z,93.50
2018-06-02T05:35:11.572Z,93.70
2018-06-02T05:36:15.949Z,93.70
2018-06-02T05:37:20.919Z,94.00
2018-06-02T05:38:25.007Z,94.00
2018-06-02T05:39:29.345Z,93.90
2018-06-02T05:40:33.448Z,94.10
2018-06-02T05:41:37.523Z,94.30
2018-06-02T05:42:41.566Z,94.20
2018-06-02T05:43:45.650Z,94.10
2018-06-02T05:44:49.887Z,93.80
2018-06-02T05:45:55.180Z,92.80
2018-06-02T05:46:59.457Z,93.50
2018-06-02T05:48:03.766Z,93.70
2018-06-02T05:49:08.083Z,93.70
2018-06-02T05:50:12.355Z,93.70
2018-06-02T05:51:17.441Z,94.00
2018-06-02T05:52:22.024Z,93.70
2018-06-02T05:53:26.330Z,93.60
2018-06-02T05:54:30.613Z,93.40
2018-06-02T05:55:34.906Z,93.70
2018-06-02T05:56:39.765Z,93.70
2018-06-02T05:57:44.098Z,93.70
2018-06-02T05:58:48.178Z,93.40
2018-06-02T05:59:52.297Z,93.40
2018-06-02T06:00:57.362Z,93.30
2018-06-02T06:02:02.178Z,93.50
2018-06-02T06:03:06.202Z,93.50
2018-06-02T06:04:10.514Z,93.20
2018-06-02T06:05:14.544Z,92.90
2018-06-02T06:06:18.692Z,92.80
2018-06-02T06:07:23.576Z,92.90
2018-06-02T06:08:27.679Z,93.20
2018-06-02T06:09:31.744Z,92.70
2018-06-02T06:10:36.118Z,93.00
2018-06-02T06:11:40.157Z,93.10
2018-06-02T06:12:44.244Z,93.00
2018-06-02T06:13:48.345Z,92.90
2018-06-02T06:14:53.168Z,93.00
2018-06-02T06:15:57.220Z,93.00
2018-06-02T06:17:01.554Z,93.00
2018-06-02T06:18:05.659Z,93.30
2018-06-02T06:19:09.761Z,93.30
2018-06-02T06:20:14.098Z,93.20
2018-06-02T06:21:18.391Z,93.30
2018-06-02T06:22:23.501Z,93.30
2018-06-02T06:23:28.052Z,93.20
2018-06-02T06:24:32.344Z,93.10
2018-06-02T06:25:36.644Z,92.40
2018-06-02T06:26:41.744Z,92.70
2018-06-02T06:27:46.019Z,92.60
2018-06-02T06:28:50.360Z,92.90
2018-06-02T06:29:54.627Z,93.10
2018-06-02T06:30:58.926Z,92.30
2018-06-02T06:32:03.222Z,92.60
2018-06-02T06:33:07.682Z,92.80
2018-06-02T06:34:11.832Z,92.50
2018-06-02T06:35:16.192Z,92.90
2018-06-02T06:36:20.349Z,93.70
2018-06-02T06:37:24.375Z,92.80
2018-06-02T06:38:29.051Z,92.80
2018-06-02T06:39:34.103Z,92.70
2018-06-02T06:40:38.401Z,92.70
2018-06-02T06:41:43.026Z,92.80
2018-06-02T06:42:47.303Z,92.60
2018-06-02T06:43:52.360Z,92.90
2018-06-02T06:44:56.676Z,92.90
2018-06-02T06:46:00.982Z,92.50
2018-06-02T06:47:05.270Z,92.50
2018-06-02T06:48:09.571Z,92.80
2018-06-02T06:49:13.887Z,92.80
2018-06-02T06:50:18.189Z,92.30
2018-06-02T06:51:22.615Z,92.70
2018-06-02T06:52:26.966Z,92.60
2018-06-02T06:53:31.566Z,93.10
2018-06-02T06:54:35.859Z,92.60
2018-06-02T06:55:40.161Z,92.60
2018-06-02T06:58:02.838Z,92.00
2018-06-02T06:59:07.914Z,92.40
2018-06-02T07:00:12.238Z,92.30
2018-06-02T07:01:16.447Z,92.20
2018-06-02T07:02:20.525Z,92.00
2018-06-02T07:03:24.623Z,92.20
2018-06-02T07:04:28.819Z,92.60
2018-06-02T07:05:32.968Z,92.10
2018-06-02T07:06:37.187Z,92.00
2018-06-02T07:07:41.376Z,91.90
2018-06-02T07:08:45.385Z,91.70
2018-06-02T07:09:50.209Z,91.70
2018-06-02T07:10:54.299Z,91.70
2018-06-02T07:11:58.458Z,91.70
2018-06-02T07:13:02.493Z,91.80
2018-06-02T07:14:06.563Z,91.80
2018-06-02T07:15:10.607Z,91.90
2018-06-02T07:16:14.673Z,91.30
2018-06-02T07:17:18.852Z,91.40
2018-06-02T07:18:23.746Z,91.80
2018-06-02T07:19:28.136Z,91.80
2018-06-02T07:20:32.447Z,92.10
2018-06-02T07:21:36.751Z,92.20
2018-06-02T07:22:41.061Z,92.30
2018-06-02T07:23:45.772Z,92.20
2018-06-02T07:24:50.170Z,91.80
2018-06-02T07:25:55.094Z,91.20
2018-06-02T07:26:59.174Z,91.20
2018-06-02T07:28:03.246Z,91.30
2018-06-02T07:29:08.095Z,91.60
2018-06-02T07:30:12.460Z,91.60
2018-06-02T07:31:16.573Z,91.80
2018-06-02T07:32:20.642Z,91.90
2018-06-02T07:33:25.438Z,91.60
2018-06-02T07:34:29.631Z,91.60
2018-06-02T07:35:33.747Z,91.50
2018-06-02T07:36:37.827Z,91.60
2018-06-02T07:37:41.849Z,91.50
2018-06-02T07:38:45.898Z,91.40
2018-06-02T07:39:50.162Z,91.50
2018-06-02T07:40:54.773Z,91.90
2018-06-02T07:41:59.080Z,91.60
2018-06-02T07:43:03.391Z,91.60
2018-06-02T07:44:07.654Z,91.70
2018-06-02T07:45:12.705Z,91.20
2018-06-02T07:46:16.990Z,91.20
2018-06-02T07:47:22.171Z,91.40
2018-06-02T07:48:26.662Z,91.40
2018-06-02T07:49:31.039Z,91.40
2018-06-02T07:50:36.097Z,91.40
2018-06-02T07:51:40.402Z,91.40
2018-06-02T07:52:44.714Z,91.50
2018-06-02T07:53:48.988Z,91.30
2018-06-02T07:54:54.025Z,91.70
2018-06-02T07:55:58.331Z,91.70
2018-06-02T07:57:02.605Z,91.00
2018-06-02T07:58:06.646Z,91.20
2018-06-02T07:59:10.688Z,91.10
2018-06-02T08:00:14.730Z,91.00
2018-06-02T08:01:19.511Z,91.20
2018-06-02T08:02:23.569Z,91.20
2018-06-02T08:03:28.445Z,91.50
2018-06-02T08:04:32.521Z,91.50
2018-06-02T08:05:36.581Z,91.50
2018-06-02T08:06:40.654Z,91.00
2018-06-02T08:07:45.107Z,91.20
2018-06-02T08:08:49.159Z,90.60
2018-06-02T08:09:53.203Z,90.80
2018-06-02T08:14:07.706Z,90.40
2018-06-02T08:15:11.799Z,90.20
2018-06-02T08:16:15.852Z,90.10
2018-06-02T08:17:20.657Z,89.70
2018-06-02T08:18:25.522Z,89.50
2018-06-02T08:19:29.681Z,89.40
2018-06-02T08:20:33.893Z,89.40
2018-06-02T08:21:38.715Z,90.10
2018-06-02T08:22:43.547Z,89.60
2018-06-02T08:23:47.603Z,89.60
2018-06-02T08:24:51.773Z,89.50
2018-06-02T08:25:56.139Z,89.30
2018-06-02T08:27:00.206Z,89.10
2018-06-02T08:28:04.242Z,88.90
2018-06-02T08:29:09.064Z,89.00
2018-06-02T08:30:13.868Z,89.10
2018-06-02T08:31:18.174Z,89.10
2018-06-02T08:32:22.279Z,89.00
2018-06-02T08:33:27.255Z,90.30
2018-06-02T08:34:31.317Z,90.40
2018-06-02T08:35:36.115Z,88.80
2018-06-02T08:36:40.219Z,88.80
2018-06-02T08:37:44.350Z,89.30
2018-06-02T08:38:49.218Z,88.90
2018-06-02T08:39:53.304Z,88.90
2018-06-02T08:40:57.369Z,88.00
2018-06-02T08:42:02.213Z,87.00
2018-06-02T08:43:06.510Z,86.90
2018-06-02T08:44:11.105Z,87.60
2018-06-02T08:45:16.182Z,87.00
2018-06-02T08:46:20.519Z,87.00
2018-06-02T08:47:24.835Z,86.80
2018-06-02T08:48:29.136Z,86.90
2018-06-02T08:49:33.734Z,86.30
2018-06-02T08:50:38.018Z,86.90
2018-06-02T08:51:42.314Z,86.90
2018-06-02T08:52:46.350Z,86.70
2018-06-02T08:53:50.419Z,87.20
2018-06-02T08:54:54.461Z,86.30
2018-06-02T08:55:58.517Z,86.50
2018-06-02T08:57:02.571Z,86.80
2018-06-02T08:58:07.491Z,85.70
2018-06-02T08:59:11.539Z,85.70
2018-06-02T09:00:15.652Z,85.70
2018-06-02T09:01:19.710Z,86.30
2018-06-02T09:02:24.273Z,87.30
2018-06-02T09:03:28.565Z,87.00
2018-06-02T09:04:32.836Z,87.50
2018-06-02T09:05:37.111Z,87.00
2018-06-02T09:06:41.375Z,86.60
2018-06-02T09:07:45.658Z,86.10
2018-06-02T09:08:50.990Z,87.10
2018-06-02T09:09:56.039Z,85.50
2018-06-02T09:11:00.374Z,85.50
2018-06-02T09:12:04.696Z,86.30
2018-06-02T09:13:08.987Z,84.70
2018-06-02T09:14:13.275Z,85.40
2018-06-02T09:15:17.888Z,83.10
2018-06-02T09:16:22.300Z,83.50
2018-06-02T09:17:26.688Z,83.40
2018-06-02T09:18:31.823Z,84.30
2018-06-02T09:19:36.162Z,84.30
2018-06-02T09:20:40.252Z,84.30
2018-06-02T09:21:44.697Z,84.50
2018-06-02T09:22:49.175Z,85.00
2018-06-02T09:23:53.270Z,85.50
2018-06-02T09:24:58.126Z,85.90
2018-06-02T09:26:02.190Z,85.60
2018-06-02T09:27:06.292Z,84.30
2018-06-02T09:28:10.672Z,85.10
2018-06-02T09:29:15.659Z,84.10
2018-06-02T09:30:19.994Z,84.10
2018-06-02T09:31:24.859Z,84.20
2018-06-02T09:32:29.168Z,84.00
2018-06-02T09:33:33.345Z,85.60
2018-06-02T09:34:38.494Z,82.40
2018-06-02T09:35:42.565Z,82.30
2018-06-02T09:36:47.468Z,81.60
2018-06-02T09:37:51.564Z,81.60
2018-06-02T09:38:55.638Z,82.70
2018-06-02T09:39:59.964Z,81.30
2018-06-02T09:41:04.275Z,80.30
2018-06-02T09:42:09.414Z,80.90
2018-06-02T09:43:13.711Z,80.80
2018-06-02T09:44:18.062Z,80.60
2018-06-02T09:45:22.348Z,80.50
2018-06-02T09:46:27.475Z,80.50
2018-06-02T09:47:32.651Z,80.90
2018-06-02T09:48:37.620Z,79.20
2018-06-02T09:49:41.770Z,79.20
2018-06-02T09:50:45.855Z,79.00
2018-06-02T09:51:49.956Z,78.80
2018-06-02T09:52:54.227Z,80.10
2018-06-02T09:53:58.631Z,80.20
2018-06-02T09:55:02.755Z,79.20
2018-06-02T09:56:07.635Z,79.10
2018-06-02T09:57:11.700Z,79.40
2018-06-02T09:58:16.070Z,81.60
2018-06-02T09:59:20.411Z,81.40
2018-06-02T10:00:25.943Z,80.10
2018-06-02T10:01:31.049Z,80.90
2018-06-02T10:02:36.123Z,80.60
2018-06-02T10:03:40.504Z,80.60
2018-06-02T10:04:45.716Z,83.20
2018-06-02T10:05:50.131Z,82.30
2018-06-02T10:06:55.523Z,81.40
2018-06-02T10:07:59.663Z,80.00
2018-06-02T10:09:04.015Z,79.80
2018-06-02T10:10:08.156Z,79.00
2018-06-02T10:11:12.351Z,79.20
2018-06-02T10:12:16.487Z,79.30
2018-06-02T10:13:21.784Z,81.10
2018-06-02T10:14:26.103Z,81.10
2018-06-02T10:15:30.264Z,80.80
2018-06-02T10:16:34.636Z,81.00
2018-06-02T10:17:39.590Z,81.00
2018-06-02T10:18:43.770Z,80.90
2018-06-02T10:19:48.171Z,82.80
2018-06-02T10:20:53.337Z,82.40
2018-06-02T10:21:57.674Z,81.70
2018-06-02T10:23:02.018Z,81.70
2018-06-02T10:24:07.207Z,79.80
2018-06-02T10:25:11.528Z,79.80
2018-06-02T10:26:15.882Z,79.30
2018-06-02T10:27:20.308Z,78.80
2018-06-02T10:28:24.626Z,78.90
2018-06-02T10:29:28.948Z,79.00
2018-06-02T10:30:33.408Z,80.80
2018-06-02T10:31:37.742Z,79.50
2018-06-02T10:32:42.069Z,78.60
2018-06-02T10:33:46.471Z,78.00
2018-06-02T10:34:50.796Z,78.40
2018-06-02T10:35:55.185Z,79.30
2018-06-02T10:36:59.359Z,78.60
2018-06-02T10:38:03.787Z,79.60
2018-06-02T10:39:07.990Z,80.40
2018-06-02T10:40:12.308Z,80.00
2018-06-02T10:41:16.466Z,80.00
2018-06-02T10:42:21.755Z,81.30
2018-06-02T10:43:26.135Z,81.30
2018-06-02T10:44:30.227Z,78.60
2018-06-02T10:45:34.522Z,77.60
2018-06-02T10:46:39.359Z,78.40
2018-06-02T10:47:43.613Z,78.40
2018-06-02T10:48:47.677Z,78.70
2018-06-02T10:49:51.828Z,78.20
2018-06-02T10:50:56.019Z,77.10
2018-06-02T10:52:00.565Z,77.50
2018-06-02T10:53:05.842Z,77.20
2018-06-02T10:54:10.368Z,77.10
2018-06-02T10:55:16.172Z,78.50
2018-06-02T10:56:20.766Z,78.50
2018-06-02T10:57:25.792Z,78.20
2018-06-02T10:58:30.291Z,78.10
2018-06-02T10:59:35.407Z,77.20
2018-06-02T11:00:39.535Z,77.30
2018-06-02T11:01:44.559Z,75.90
2018-06-02T11:02:48.694Z,75.90
2018-06-02T11:03:53.145Z,74.50
2018-06-02T11:04:57.498Z,74.40
2018-06-02T11:06:01.634Z,71.90
2018-06-02T11:07:05.990Z,73.20
2018-06-02T11:08:11.136Z,73.50
2018-06-02T11:09:15.407Z,73.40
2018-06-02T11:10:20.203Z,74.60
2018-06-02T11:11:24.597Z,73.80
2018-06-02T11:12:28.894Z,73.40
2018-06-02T11:13:33.238Z,72.90
2018-06-02T11:14:37.618Z,73.10
2018-06-02T11:15:42.141Z,73.60
2018-06-02T11:16:46.877Z,72.90
2018-06-02T11:17:51.192Z,73.00
2018-06-02T11:18:56.331Z,70.90
2018-06-02T11:20:01.465Z,71.30
2018-06-02T11:21:06.722Z,71.50
2018-06-02T11:22:11.323Z,71.50
2018-06-02T11:23:16.438Z,73.70
2018-06-02T11:24:21.522Z,74.50
2018-06-02T11:25:25.857Z,73.80
2018-06-02T11:26:30.719Z,72.90
2018-06-02T11:27:34.850Z,72.90
2018-06-02T11:28:39.448Z,72.10
2018-06-02T11:29:43.603Z,73.20
2018-06-02T11:30:48.524Z,72.90
2018-06-02T11:31:53.426Z,72.90
2018-06-02T11:32:57.545Z,72.90
2018-06-02T11:34:01.660Z,72.10
2018-06-02T11:35:06.186Z,73.00
2018-06-02T11:36:11.176Z,74.10
2018-06-02T11:37:16.058Z,73.10
2018-06-02T11:38:20.254Z,73.00
2018-06-02T11:39:24.363Z,72.30
2018-06-02T11:40:28.527Z,72.20
2018-06-02T11:41:33.750Z,73.80
2018-06-02T11:42:38.576Z,73.30
2018-06-02T11:43:43.711Z,74.20
2018-06-02T11:44:48.089Z,73.50
2018-06-02T11:45:52.558Z,73.40
2018-06-02T11:46:56.866Z,73.70
2018-06-02T11:48:01.492Z,71.50
2018-06-02T11:49:05.640Z,72.80
2018-06-02T11:50:10.496Z,70.20
2018-06-02T11:51:14.574Z,70.90
2018-06-02T11:52:18.967Z,71.40
2018-06-02T11:53:24.187Z,70.70
2018-06-02T11:54:29.031Z,70.00
2018-06-02T11:55:33.930Z,69.20
2018-06-02T11:56:38.236Z,69.10
2018-06-02T11:57:43.171Z,67.80
2018-06-02T11:58:48.034Z,68.40
2018-06-02T11:59:52.175Z,68.50
2018-06-02T12:00:56.283Z,69.40
2018-06-02T12:02:01.199Z,71.70
2018-06-02T12:03:05.320Z,71.70
2018-06-02T12:04:10.153Z,72.80
2018-06-02T12:05:14.193Z,73.00
2018-06-02T12:06:18.273Z,73.90
2018-06-02T12:07:22.635Z,73.40
2018-06-02T12:08:27.829Z,73.00
2018-06-02T12:09:32.922Z,72.90
2018-06-02T12:10:37.215Z,72.90
2018-06-02T12:11:42.262Z,70.40
2018-06-02T12:12:46.319Z,70.40
2018-06-02T12:13:50.740Z,70.30
2018-06-02T12:14:55.614Z,69.20
2018-06-02T12:15:59.682Z,69.20
2018-06-02T12:17:04.614Z,69.30
2018-06-02T12:18:08.722Z,69.30
2018-06-02T12:19:12.802Z,69.90
2018-06-02T12:20:17.910Z,70.00
2018-06-02T12:21:21.950Z,70.00
2018-06-02T12:22:26.049Z,70.20
2018-06-02T12:23:30.153Z,70.20
2018-06-02T12:24:34.265Z,70.00
2018-06-02T12:25:38.375Z,69.70
2018-06-02T12:26:42.736Z,69.40
2018-06-02T12:27:47.547Z,68.50
2018-06-02T12:28:51.736Z,68.60
2018-06-02T12:29:55.794Z,67.50
2018-06-02T12:31:00.051Z,66.80
2018-06-02T12:32:04.371Z,65.60
2018-06-02T12:33:08.950Z,67.50
2018-06-02T12:34:13.267Z,67.10
2018-06-02T12:35:17.675Z,68.00
2018-06-02T12:36:22.003Z,67.40
2018-06-02T12:37:26.297Z,67.70
2018-06-02T12:38:30.567Z,65.50
2018-06-02T12:39:35.122Z,65.20
2018-06-02T12:40:39.445Z,64.90
2018-06-02T12:41:43.867Z,64.40
2018-06-02T12:42:49.023Z,63.80
2018-06-02T12:43:53.329Z,63.80
2018-06-02T12:44:57.714Z,64.70
2018-06-02T12:46:02.559Z,65.80
2018-06-02T12:47:06.634Z,65.80
2018-06-02T12:48:11.529Z,64.20
2018-06-02T12:49:15.570Z,64.30
2018-06-02T12:50:19.632Z,63.80
2018-06-02T12:51:23.734Z,64.10
2018-06-02T12:52:27.787Z,64.50
2018-06-02T12:53:31.854Z,64.50
2018-06-02T12:54:36.959Z,62.20
2018-06-02T12:55:41.278Z,62.20
2018-06-02T12:56:46.338Z,63.90
2018-06-02T12:57:50.727Z,63.20
2018-06-02T12:58:56.051Z,64.10
2018-06-02T13:00:01.131Z,65.00
2018-06-02T13:01:05.515Z,65.00
2018-06-02T13:02:09.814Z,64.60
2018-06-02T13:03:14.126Z,63.90
2018-06-02T13:04:18.945Z,65.20
2018-06-02T13:05:24.100Z,64.30
2018-06-02T13:06:28.218Z,64.20
2018-06-02T13:07:32.288Z,64.00
2018-06-02T13:08:36.348Z,62.80
2018-06-02T13:09:40.412Z,62.00
2018-06-02T13:10:44.747Z,62.70
2018-06-02T13:11:49.316Z,62.40
2018-06-02T13:12:53.690Z,63.30
2018-06-02T13:13:58.737Z,63.70
2018-06-02T13:15:03.058Z,63.70
2018-06-02T13:16:07.150Z,63.80
2018-06-02T13:17:11.169Z,63.20
2018-06-02T13:18:15.570Z,62.30
2018-06-02T13:19:19.664Z,62.30
2018-06-02T13:20:24.225Z,63.00
2018-06-02T13:21:28.288Z,63.30
2018-06-02T13:22:32.575Z,64.10
2018-06-02T13:23:36.890Z,64.30
2018-06-02T13:24:41.029Z,64.50
2018-06-02T13:25:46.231Z,66.20
2018-06-02T13:26:50.543Z,67.00
2018-06-02T13:27:54.847Z,67.10
2018-06-02T13:30:01.852Z,67.70
2018-06-02T13:31:06.182Z,68.10
2018-06-02T13:32:11.215Z,67.40
2018-06-02T13:33:16.275Z,67.60
2018-06-02T13:34:20.610Z,67.60
2018-06-02T13:35:26.134Z,67.50
2018-06-02T13:36:30.470Z,67.10
2018-06-02T13:37:34.791Z,67.40
2018-06-02T13:38:39.122Z,67.90
2018-06-02T13:39:43.340Z,68.20
2018-06-02T13:40:47.775Z,67.40
2018-06-02T13:41:52.344Z,68.00
2018-06-02T13:42:57.446Z,69.20
2018-06-02T13:44:01.523Z,69.00
2018-06-02T13:45:05.581Z,67.60
2018-06-02T13:46:09.630Z,66.40
2018-06-02T13:47:13.811Z,66.90
2018-06-02T13:48:18.676Z,65.90
2018-06-02T13:49:23.644Z,66.00
2018-06-02T13:50:27.734Z,66.00
2018-06-02T13:51:31.934Z,66.50
2018-06-02T13:52:36.111Z,67.50
2018-06-02T13:53:40.316Z,67.10
2018-06-02T13:54:45.511Z,63.80
2018-06-02T13:55:50.528Z,63.80